Hauptseite
METAR-TAF:

METAR-TAF

Flughäfen :

Flugplatz Melun-Villaroche

Melun, Frankreich

Breite: 48-37N, Länge: 002-41E, Höhe: 95 m

Beobachtung

Neuester Wetterbericht von vor 39 Minuten, um 11:00 UTC
Wind 6 kt aus Ost/Nordost, variierte zwischen Nord/Nordwest und Ost/Südost
Temperatur 29°C
Luftfeuchtigkeit 31%
Luftdruck 1017 hPa
Sichtweite 10 km oder mehr
keine Wolken unter 1500 m und keine Kumulonimbus oder Gewitterwolken

METAR: LFPM 191100Z AUTO 06006KT 340V110 CAVOK 29/10 Q1017

Zeit: 13:39 (11:39 UTC)


TAF: fehlend

Wetterbeobachtungen und Prognosen von mehr als 4000 Flughäfen (METAR und TAF Bericht).

Die verfügbaren Stationen werden durch gelbe und rote Markierungen auf der Karte dargestellt.

Führen Sie die Maus auf sie, um den Namen der Station zu sehen.

Darauf klicken, um die Beobachtung von Wetterbeobachtungen und Prognosen zu sehen.

Um die Karte zu ändern : klicken Sie auf den grünen Tasten mit einem schwarzen Kreuz Zum Vergrößern, auf den grünen Button mit einem Gedankenstrich zu verkleinern, oder auf die grünen Pfeile für benachbarte Karten.


METAR-TAF: